Brownsburg, Canada
Current Conditions -  °F | °C
As of 7:00 PM on Monday 24 Nov 2014 (Local Time) from CYMX Reporting Station
Rain Showers Rain Showers  
Wind Chill: 57°   Ceiling: 6800
Heat Index: 57°   Visibility: 25mi
Dew Point: 54°   Wind: 12mph
Humidity: 88%   Direction: 230°SW
Pressure: 29.32"   Gusts: 30mph
Location:  45.68°N, 74.4°W
Report Text: CYMX 250000Z 23010G26KT 25SM -SHRA SCT035 OVC068 14/12 A2932 RMK SC4AC4 PRESRR SLP931 DENSITY ALT 800FT
Loading
Personal Weather Stations






























Interactive Weather Map New forecast layout! Learn more

10-Day Weather Forecast

Advertisements
Track Severe Weather on mobile